Lloc web orientat als practicants d'activitats
Centenari de l'SMC: 100 anys mirant el cel

Dades de l'estació automàtica el Masroig

?
?

Resum diari

22:00 TU
Dades diàries de l'estació meteorològica
Temperatura mitjana 11.9 °C
Temperatura màxima 18.9 °C 12:09 TU
Temperatura mínima 2.9 °C 5:16 TU
Humitat relativa mitjana 68%
Precipitació acumulada 0.0 mm
Ratxa màxima del vent (2 m) 25.2 km/h - 121º 15:04 TU

El tram horari està expressat en Temps Universal (TU). Cal sumar una hora en horari d'hivern i dues en horari d'estiu per passar a l'hora oficial.

el Masroig

Metadades estació meteorològica
Municipi El Masroig
Comarca Priorat
Altitud 141 m
Data alta 20.06.2000
Estat actual Operativa
Dades de període
Període
TU
TM
°C
TX
°C
TN
°C
HRM
%
PPT
mm
VVM (2 m)
km/h
DVM (2 m)
graus
VVX (2 m)
km/h
00:00 - 00:30 6.3 6.6 6.0 82 0.0 1.8 122 4.3
00:30 - 01:00 5.9 6.3 5.5 85 0.0 2.2 121 4.0
01:00 - 01:30 5.9 6.2 5.5 86 0.0 2.2 104 6.1
01:30 - 02:00 6.0 6.3 5.7 85 0.0 1.8 102 5.4
02:00 - 02:30 5.3 5.9 4.9 88 0.0 2.9 117 5.4
02:30 - 03:00 5.0 5.1 4.9 90 0.0 2.2 134 4.3
03:00 - 03:30 4.7 5.1 4.5 90 0.0 2.9 116 6.8
03:30 - 04:00 4.0 4.5 3.7 91 0.0 3.2 128 6.1
04:00 - 04:30 3.7 3.8 3.6 92 0.0 2.9 121 5.8
04:30 - 05:00 3.4 3.6 3.2 92 0.0 3.6 124 5.8
05:00 - 05:30 3.0 3.2 2.9 93 0.0 4.3 128 7.2
05:30 - 06:00 3.5 4.3 3.2 91 0.0 3.6 122 6.1
06:00 - 06:30 5.1 5.7 4.4 85 0.0 3.2 134 9.0
06:30 - 07:00 7.3 8.5 5.8 77 0.0 2.2 149 7.2
07:00 - 07:30 9.6 10.8 8.4 67 0.0 2.5 117 6.8
07:30 - 08:00 11.9 12.3 10.6 54 0.0 2.5 65 7.6
08:00 - 08:30 12.9 13.8 12.2 49 0.0 2.9 110 8.3
08:30 - 09:00 13.8 14.2 13.4 45 0.0 2.5 48 7.6
09:00 - 09:30 14.7 15.9 14.0 42 0.0 4.0 149 9.0
09:30 - 10:00 15.5 16.3 14.9 42 0.0 3.6 273 10.8
10:00 - 10:30 15.9 16.6 15.1 42 0.0 4.3 297 12.2
10:30 - 11:00 16.6 16.9 16.0 42 0.0 5.4 312 13.0
11:00 - 11:30 17.7 18.5 16.7 41 0.0 4.3 218 15.8
11:30 - 12:00 18.2 18.8 17.6 42 0.0 5.4 220 19.1
12:00 - 12:30 18.3 18.9 17.9 44 0.0 8.3 207 20.5
12:30 - 13:00 17.8 18.6 17.4 48 0.0 11.2 154 23.8
13:00 - 13:30 17.9 18.5 17.5 50 0.0 10.1 166 20.2
13:30 - 14:00 17.9 18.5 17.3 52 0.0 10.1 180 20.9
14:00 - 14:30 17.5 18.1 16.6 55 0.0 10.8 165 24.8
14:30 - 15:00 16.8 17.3 16.3 58 0.0 13.0 142 24.5
15:00 - 15:30 16.8 17.2 16.5 59 0.0 11.9 157 25.2
15:30 - 16:00 16.4 17.1 15.9 59 0.0 11.5 160 23.4
16:00 - 16:30 15.7 16.0 15.6 62 0.0 11.2 153 23.4
16:30 - 17:00 15.1 15.5 14.8 66 0.0 11.5 149 23.4
17:00 - 17:30 14.8 14.9 14.7 68 0.0 9.0 140 16.9
17:30 - 18:00 14.5 14.7 14.4 69 0.0 8.6 149 17.6
18:00 - 18:30 14.2 14.4 13.9 71 0.0 5.0 174 14.8
18:30 - 19:00 13.8 13.9 13.7 70 0.0 6.1 187 15.1
19:00 - 19:30 13.6 13.7 13.5 71 0.0 5.4 165 13.3
19:30 - 20:00 13.4 13.5 13.3 71 0.0 7.6 130 13.3
20:00 - 20:30 13.2 13.3 13.1 73 0.0 4.0 116 9.4
20:30 - 21:00 13.0 13.1 13.0 74 0.0 4.7 115 7.6
21:00 - 21:30 12.8 12.9 12.8 75 0.0 3.6 108 5.8
21:30 - 22:00 12.7 12.8 12.6 76 0.0 2.5 105 4.3
22:00 - 22:30 12.7 12.7 12.6 76 0.0 2.9 109 5.0

Les dades en taronja només han passat un control de qualitat automàtic. Resta pendent la seva validació definitiva.